sensor_id;sensor_type;location;lat;lon;timestamp;pressure;altitude;pressure_sealevel;temperature;humidity
15674;BME280;7937;48.090;16.212;2023-09-18T00:02:52;97799.66;;;14.86;100.00
15674;BME280;7937;48.090;16.212;2023-09-18T00:05:54;97565.66;;;13.31;100.00
15674;BME280;7937;48.090;16.212;2023-09-18T00:08:57;97707.00;;;14.22;100.00
15674;BME280;7937;48.090;16.212;2023-09-18T00:11:59;97471.47;;;12.66;100.00
15674;BME280;7937;48.090;16.212;2023-09-18T00:15:01;97625.94;;;13.59;100.00
15674;BME280;7937;48.090;16.212;2023-09-18T00:18:03;97694.41;;;14.12;100.00
15674;BME280;7937;48.090;16.212;2023-09-18T00:21:05;97658.22;;;14.00;100.00
15674;BME280;7937;48.090;16.212;2023-09-18T00:24:08;97656.03;;;13.91;100.00
15674;BME280;7937;48.090;16.212;2023-09-18T00:27:10;97606.69;;;13.62;100.00
15674;BME280;7937;48.090;16.212;2023-09-18T00:30:15;97551.41;;;13.20;100.00
15674;BME280;7937;48.090;16.212;2023-09-18T00:33:18;97666.50;;;14.03;100.00
15674;BME280;7937;48.090;16.212;2023-09-18T00:36:23;97708.59;;;14.18;100.00
15674;BME280;7937;48.090;16.212;2023-09-18T00:39:28;97479.22;;;12.62;100.00
15674;BME280;7937;48.090;16.212;2023-09-18T00:42:30;97553.84;;;13.22;100.00
15674;BME280;7937;48.090;16.212;2023-09-18T00:45:33;97647.16;;;13.76;100.00
15674;BME280;7937;48.090;16.212;2023-09-18T00:48:36;97555.13;;;13.19;100.00
15674;BME280;7937;48.090;16.212;2023-09-18T00:51:38;97638.56;;;13.68;100.00
15674;BME280;7937;48.090;16.212;2023-09-18T00:54:41;97733.59;;;14.34;100.00
15674;BME280;7937;48.090;16.212;2023-09-18T00:57:44;97656.25;;;13.70;100.00
15674;BME280;7937;48.090;16.212;2023-09-18T01:00:47;97487.81;;;12.80;100.00
15674;BME280;7937;48.090;16.212;2023-09-18T01:03:52;97686.91;;;14.04;100.00
15674;BME280;7937;48.090;16.212;2023-09-18T01:06:55;97575.47;;;13.20;100.00
15674;BME280;7937;48.090;16.212;2023-09-18T01:09:59;97649.56;;;13.77;100.00
15674;BME280;7937;48.090;16.212;2023-09-18T01:13:06;97616.28;;;13.53;100.00
15674;BME280;7937;48.090;16.212;2023-09-18T01:16:27;97669.38;;;13.76;100.00
15674;BME280;7937;48.090;16.212;2023-09-18T01:19:46;97727.97;;;14.35;100.00
15674;BME280;7937;48.090;16.212;2023-09-18T01:22:48;97496.13;;;12.78;100.00
15674;BME280;7937;48.090;16.212;2023-09-18T01:25:51;97723.41;;;14.36;100.00
15674;BME280;7937;48.090;16.212;2023-09-18T01:28:53;97720.72;;;14.36;100.00
15674;BME280;7937;48.090;16.212;2023-09-18T01:31:56;97484.06;;;12.76;100.00
15674;BME280;7937;48.090;16.212;2023-09-18T01:35:02;97726.88;;;14.36;100.00
15674;BME280;7937;48.090;16.212;2023-09-18T01:38:06;97545.91;;;12.95;100.00
15674;BME280;7937;48.090;16.212;2023-09-18T01:41:08;97541.16;;;13.02;100.00
15674;BME280;7937;48.090;16.212;2023-09-18T01:44:11;97572.63;;;13.42;100.00
15674;BME280;7937;48.090;16.212;2023-09-18T01:47:18;97701.13;;;14.20;100.00
15674;BME280;7937;48.090;16.212;2023-09-18T01:50:22;97384.16;;;12.19;100.00
15674;BME280;7937;48.090;16.212;2023-09-18T01:53:24;97579.88;;;13.41;100.00
15674;BME280;7937;48.090;16.212;2023-09-18T01:56:28;97459.69;;;12.62;100.00
15674;BME280;7937;48.090;16.212;2023-09-18T01:59:30;97605.25;;;13.39;100.00
15674;BME280;7937;48.090;16.212;2023-09-18T02:02:34;97598.84;;;13.35;100.00
15674;BME280;7937;48.090;16.212;2023-09-18T02:05:57;97504.50;;;13.02;100.00
15674;BME280;7937;48.090;16.212;2023-09-18T02:08:59;97534.22;;;13.06;100.00
15674;BME280;7937;48.090;16.212;2023-09-18T02:12:02;97485.97;;;12.80;100.00
15674;BME280;7937;48.090;16.212;2023-09-18T02:15:06;97584.94;;;13.38;100.00
15674;BME280;7937;48.090;16.212;2023-09-18T02:18:09;97433.88;;;12.30;100.00
15674;BME280;7937;48.090;16.212;2023-09-18T02:21:11;97700.31;;;14.19;100.00
15674;BME280;7937;48.090;16.212;2023-09-18T02:24:21;97432.19;;;12.67;100.00
15674;BME280;7937;48.090;16.212;2023-09-18T02:27:23;97447.34;;;12.51;100.00
15674;BME280;7937;48.090;16.212;2023-09-18T02:30:25;97443.19;;;12.80;100.00
15674;BME280;7937;48.090;16.212;2023-09-18T02:33:27;97620.41;;;13.86;100.00
15674;BME280;7937;48.090;16.212;2023-09-18T02:36:30;97585.56;;;13.60;100.00
15674;BME280;7937;48.090;16.212;2023-09-18T02:39:32;97502.16;;;13.11;100.00
15674;BME280;7937;48.090;16.212;2023-09-18T02:42:34;97562.72;;;13.37;100.00
15674;BME280;7937;48.090;16.212;2023-09-18T02:45:36;97593.06;;;13.74;100.00
15674;BME280;7937;48.090;16.212;2023-09-18T02:48:38;97480.91;;;12.84;100.00
15674;BME280;7937;48.090;16.212;2023-09-18T02:51:41;97597.88;;;13.72;100.00
15674;BME280;7937;48.090;16.212;2023-09-18T02:54:43;97584.16;;;13.53;100.00
15674;BME280;7937;48.090;16.212;2023-09-18T02:57:45;97398.72;;;12.54;100.00
15674;BME280;7937;48.090;16.212;2023-09-18T03:00:49;97574.56;;;13.57;100.00
15674;BME280;7937;48.090;16.212;2023-09-18T03:03:52;97462.47;;;12.82;100.00
15674;BME280;7937;48.090;16.212;2023-09-18T03:06:54;97365.75;;;12.28;100.00
15674;BME280;7937;48.090;16.212;2023-09-18T03:09:56;97637.06;;;14.13;100.00
15674;BME280;7937;48.090;16.212;2023-09-18T03:12:59;97516.44;;;13.37;100.00
15674;BME280;7937;48.090;16.212;2023-09-18T03:16:03;97511.38;;;13.46;100.00
15674;BME280;7937;48.090;16.212;2023-09-18T03:19:05;97451.28;;;12.96;100.00
15674;BME280;7937;48.090;16.212;2023-09-18T03:22:07;97479.13;;;13.10;100.00
15674;BME280;7937;48.090;16.212;2023-09-18T03:25:09;97368.00;;;12.51;100.00
15674;BME280;7937;48.090;16.212;2023-09-18T03:28:12;97499.78;;;13.25;100.00
15674;BME280;7937;48.090;16.212;2023-09-18T03:31:14;97565.25;;;13.75;100.00
15674;BME280;7937;48.090;16.212;2023-09-18T03:34:17;97460.63;;;12.93;100.00
15674;BME280;7937;48.090;16.212;2023-09-18T03:37:20;97548.88;;;13.56;100.00
15674;BME280;7937;48.090;16.212;2023-09-18T03:40:22;97621.56;;;14.20;100.00
15674;BME280;7937;48.090;16.212;2023-09-18T03:43:25;97421.59;;;12.97;100.00
15674;BME280;7937;48.090;16.212;2023-09-18T03:46:28;97419.47;;;12.99;100.00
15674;BME280;7937;48.090;16.212;2023-09-18T03:49:30;97373.41;;;12.67;100.00
15674;BME280;7937;48.090;16.212;2023-09-18T03:52:33;97596.63;;;14.25;100.00
15674;BME280;7937;48.090;16.212;2023-09-18T03:55:35;97610.31;;;14.34;100.00
15674;BME280;7937;48.090;16.212;2023-09-18T03:58:37;97368.31;;;12.75;100.00
15674;BME280;7937;48.090;16.212;2023-09-18T04:01:39;97484.88;;;13.54;100.00
15674;BME280;7937;48.090;16.212;2023-09-18T04:04:41;97600.41;;;14.34;100.00
15674;BME280;7937;48.090;16.212;2023-09-18T04:07:44;97394.56;;;12.88;100.00
15674;BME280;7937;48.090;16.212;2023-09-18T04:10:48;97455.16;;;13.25;100.00
15674;BME280;7937;48.090;16.212;2023-09-18T04:13:50;97518.66;;;13.71;100.00
15674;BME280;7937;48.090;16.212;2023-09-18T04:16:53;97310.78;;;12.37;100.00
15674;BME280;7937;48.090;16.212;2023-09-18T04:19:55;97498.84;;;13.77;100.00
15674;BME280;7937;48.090;16.212;2023-09-18T04:23:20;97589.13;;;14.37;100.00
15674;BME280;7937;48.090;16.212;2023-09-18T04:26:24;97515.19;;;13.80;100.00
15674;BME280;7937;48.090;16.212;2023-09-18T04:29:32;97423.81;;;13.21;100.00
15674;BME280;7937;48.090;16.212;2023-09-18T04:32:37;97481.94;;;13.46;100.00
15674;BME280;7937;48.090;16.212;2023-09-18T04:35:41;97468.25;;;13.32;100.00
15674;BME280;7937;48.090;16.212;2023-09-18T04:38:43;97454.38;;;13.45;100.00
15674;BME280;7937;48.090;16.212;2023-09-18T04:41:45;97469.88;;;13.48;100.00
15674;BME280;7937;48.090;16.212;2023-09-18T04:44:47;97570.13;;;14.24;100.00
15674;BME280;7937;48.090;16.212;2023-09-18T04:47:50;97420.34;;;13.20;100.00
15674;BME280;7937;48.090;16.212;2023-09-18T04:50:52;97586.19;;;14.24;100.00
15674;BME280;7937;48.090;16.212;2023-09-18T04:53:55;97514.63;;;13.93;100.00
15674;BME280;7937;48.090;16.212;2023-09-18T04:56:58;97360.09;;;12.87;100.00
15674;BME280;7937;48.090;16.212;2023-09-18T05:00:00;97439.13;;;13.46;100.00
15674;BME280;7937;48.090;16.212;2023-09-18T05:03:18;97372.69;;;13.02;100.00
15674;BME280;7937;48.090;16.212;2023-09-18T05:06:21;97466.16;;;13.54;100.00
15674;BME280;7937;48.090;16.212;2023-09-18T05:09:23;97280.06;;;12.39;100.00
15674;BME280;7937;48.090;16.212;2023-09-18T05:12:27;97400.50;;;13.01;100.00
15674;BME280;7937;48.090;16.212;2023-09-18T05:15:29;97570.66;;;14.31;100.00
15674;BME280;7937;48.090;16.212;2023-09-18T05:18:31;97461.63;;;13.55;100.00
15674;BME280;7937;48.090;16.212;2023-09-18T05:21:34;97327.66;;;12.58;100.00
15674;BME280;7937;48.090;16.212;2023-09-18T05:24:38;97383.38;;;13.02;100.00
15674;BME280;7937;48.090;16.212;2023-09-18T05:27:40;97434.56;;;13.46;100.00
15674;BME280;7937;48.090;16.212;2023-09-18T05:30:46;97405.13;;;13.26;100.00
15674;BME280;7937;48.090;16.212;2023-09-18T05:33:48;97445.28;;;13.56;100.00
15674;BME280;7937;48.090;16.212;2023-09-18T05:36:50;97359.31;;;12.97;100.00
15674;BME280;7937;48.090;16.212;2023-09-18T05:39:53;97550.81;;;14.37;100.00
15674;BME280;7937;48.090;16.212;2023-09-18T05:42:56;97507.69;;;14.08;100.00
15674;BME280;7937;48.090;16.212;2023-09-18T05:45:58;97550.81;;;14.37;100.00
15674;BME280;7937;48.090;16.212;2023-09-18T05:49:04;97309.03;;;12.94;100.00
15674;BME280;7937;48.090;16.212;2023-09-18T05:52:06;97272.38;;;12.79;100.00
15674;BME280;7937;48.090;16.212;2023-09-18T05:55:08;97335.25;;;12.97;100.00
15674;BME280;7937;48.090;16.212;2023-09-18T05:58:11;97420.13;;;13.67;100.00
15674;BME280;7937;48.090;16.212;2023-09-18T06:01:13;97416.66;;;13.67;100.00
15674;BME280;7937;48.090;16.212;2023-09-18T06:04:15;97521.59;;;14.40;100.00
15674;BME280;7937;48.090;16.212;2023-09-18T06:07:20;97381.56;;;13.53;100.00
15674;BME280;7937;48.090;16.212;2023-09-18T06:10:24;97260.88;;;12.78;100.00
15674;BME280;7937;48.090;16.212;2023-09-18T06:13:27;97311.75;;;13.24;100.00
15674;BME280;7937;48.090;16.212;2023-09-18T06:16:30;97294.34;;;12.96;100.00
15674;BME280;7937;48.090;16.212;2023-09-18T06:19:33;97515.97;;;14.52;100.00
15674;BME280;7937;48.090;16.212;2023-09-18T06:22:37;97509.56;;;14.53;100.00
15674;BME280;7937;48.090;16.212;2023-09-18T06:25:42;97298.34;;;13.14;100.00
15674;BME280;7937;48.090;16.212;2023-09-18T06:28:44;97331.25;;;13.30;100.00
15674;BME280;7937;48.090;16.212;2023-09-18T06:31:46;97306.91;;;13.21;100.00
15674;BME280;7937;48.090;16.212;2023-09-18T06:34:49;97426.25;;;14.14;100.00
15674;BME280;7937;48.090;16.212;2023-09-18T06:37:51;97330.47;;;13.45;100.00
15674;BME280;7937;48.090;16.212;2023-09-18T06:40:54;97392.78;;;14.01;100.00
15674;BME280;7937;48.090;16.212;2023-09-18T06:43:57;97450.81;;;14.62;100.00
15674;BME280;7937;48.090;16.212;2023-09-18T06:46:59;97401.00;;;14.40;100.00
15674;BME280;7937;48.090;16.212;2023-09-18T06:50:01;97487.66;;;15.06;100.00
15674;BME280;7937;48.090;16.212;2023-09-18T06:53:06;97220.22;;;13.42;100.00
15674;BME280;7937;48.090;16.212;2023-09-18T06:56:10;97399.31;;;14.70;100.00
15674;BME280;7937;48.090;16.212;2023-09-18T06:59:14;97358.38;;;14.44;100.00
15674;BME280;7937;48.090;16.212;2023-09-18T07:02:17;97345.00;;;14.49;100.00
15674;BME280;7937;48.090;16.212;2023-09-18T07:05:19;97395.81;;;14.75;100.00
15674;BME280;7937;48.090;16.212;2023-09-18T07:08:21;97380.16;;;14.87;100.00
15674;BME280;7937;48.090;16.212;2023-09-18T07:11:25;97418.25;;;15.38;100.00
15674;BME280;7937;48.090;16.212;2023-09-18T07:14:27;97492.66;;;16.11;100.00
15674;BME280;7937;48.090;16.212;2023-09-18T07:17:29;97164.72;;;14.23;100.00
15674;BME280;7937;48.090;16.212;2023-09-18T07:20:32;97279.03;;;15.27;100.00
15674;BME280;7937;48.090;16.212;2023-09-18T07:23:34;97338.56;;;15.68;100.00
15674;BME280;7937;48.090;16.212;2023-09-18T07:26:39;97393.78;;;16.08;100.00
15674;BME280;7937;48.090;16.212;2023-09-18T07:29:41;97372.69;;;16.20;100.00
15674;BME280;7937;48.090;16.212;2023-09-18T07:32:44;97335.28;;;16.48;100.00
15674;BME280;7937;48.090;16.212;2023-09-18T07:35:47;97463.44;;;17.62;100.00
15674;BME280;7937;48.090;16.212;2023-09-18T07:38:50;97310.84;;;17.06;100.00
15674;BME280;7937;48.090;16.212;2023-09-18T07:41:53;97429.69;;;18.02;100.00
15674;BME280;7937;48.090;16.212;2023-09-18T07:44:55;97333.53;;;17.51;100.00
15674;BME280;7937;48.090;16.212;2023-09-18T07:48:00;97426.75;;;18.31;100.00
15674;BME280;7937;48.090;16.212;2023-09-18T07:51:02;97398.88;;;18.22;100.00
15674;BME280;7937;48.090;16.212;2023-09-18T07:54:07;97383.22;;;18.38;100.00
15674;BME280;7937;48.090;16.212;2023-09-18T07:57:09;97470.94;;;19.32;100.00
15674;BME280;7937;48.090;16.212;2023-09-18T08:00:12;97482.81;;;19.45;100.00
15674;BME280;7937;48.090;16.212;2023-09-18T08:03:14;97286.94;;;18.25;100.00
15674;BME280;7937;48.090;16.212;2023-09-18T08:06:17;97469.56;;;19.71;99.70
15674;BME280;7937;48.090;16.212;2023-09-18T08:09:21;97294.78;;;18.63;100.00
15674;BME280;7937;48.090;16.212;2023-09-18T08:12:23;97399.16;;;19.40;100.00
15674;BME280;7937;48.090;16.212;2023-09-18T08:15:26;97470.88;;;19.96;100.00
15674;BME280;7937;48.090;16.212;2023-09-18T08:18:29;97333.03;;;18.92;100.00
15674;BME280;7937;48.090;16.212;2023-09-18T08:21:32;97402.28;;;19.69;100.00
15674;BME280;7937;48.090;16.212;2023-09-18T08:24:34;97307.03;;;19.19;99.72
15674;BME280;7937;48.090;16.212;2023-09-18T08:27:38;97392.38;;;19.87;98.12
15674;BME280;7937;48.090;16.212;2023-09-18T08:30:46;97407.38;;;20.24;96.99
15674;BME280;7937;48.090;16.212;2023-09-18T08:33:49;97360.00;;;19.96;95.17
15674;BME280;7937;48.090;16.212;2023-09-18T08:36:51;97432.03;;;20.54;96.68
15674;BME280;7937;48.090;16.212;2023-09-18T08:39:54;97350.69;;;20.10;95.48
15674;BME280;7937;48.090;16.212;2023-09-18T08:42:58;97286.47;;;19.85;92.24
15674;BME280;7937;48.090;16.212;2023-09-18T08:46:06;97473.31;;;20.99;92.66
15674;BME280;7937;48.090;16.212;2023-09-18T08:49:10;97277.50;;;19.67;89.86
15674;BME280;7937;48.090;16.212;2023-09-18T08:52:14;97290.97;;;19.98;87.88
15674;BME280;7937;48.090;16.212;2023-09-18T08:55:17;97460.16;;;21.32;84.96
15674;BME280;7937;48.090;16.212;2023-09-18T08:58:20;97455.56;;;21.50;83.34
15674;BME280;7937;48.090;16.212;2023-09-18T09:01:24;97445.69;;;21.63;82.24
15674;BME280;7937;48.090;16.212;2023-09-18T09:04:26;97439.00;;;21.78;79.85
15674;BME280;7937;48.090;16.212;2023-09-18T09:07:29;97441.69;;;21.78;82.17
15674;BME280;7937;48.090;16.212;2023-09-18T09:10:33;97310.81;;;20.99;81.86
15674;BME280;7937;48.090;16.212;2023-09-18T09:13:35;97439.75;;;21.96;80.81
15674;BME280;7937;48.090;16.212;2023-09-18T09:16:51;97228.31;;;20.71;80.43
15674;BME280;7937;48.090;16.212;2023-09-18T09:20:08;97324.00;;;21.61;76.80
15674;BME280;7937;48.090;16.212;2023-09-18T09:23:11;97208.88;;;20.95;76.00
15674;BME280;7937;48.090;16.212;2023-09-18T09:26:14;97268.47;;;21.76;73.21
15674;BME280;7937;48.090;16.212;2023-09-18T09:29:20;97201.91;;;21.49;73.57
15674;BME280;7937;48.090;16.212;2023-09-18T09:32:23;97270.91;;;21.69;74.64
15674;BME280;7937;48.090;16.212;2023-09-18T09:35:27;97325.59;;;22.27;73.22
15674;BME280;7937;48.090;16.212;2023-09-18T09:38:31;97241.47;;;21.88;72.63
15674;BME280;7937;48.090;16.212;2023-09-18T09:41:34;97417.41;;;23.22;72.72
15674;BME280;7937;48.090;16.212;2023-09-18T09:44:37;97341.88;;;22.86;68.98
15674;BME280;7937;48.090;16.212;2023-09-18T09:47:40;97208.66;;;22.11;72.50
15674;BME280;7937;48.090;16.212;2023-09-18T09:50:46;97156.09;;;21.65;71.95
15674;BME280;7937;48.090;16.212;2023-09-18T09:53:51;97389.13;;;23.65;65.90
15674;BME280;7937;48.090;16.212;2023-09-18T09:56:53;97196.88;;;22.57;64.93
15674;BME280;7937;48.090;16.212;2023-09-18T10:00:05;97309.34;;;23.19;68.18
15674;BME280;7937;48.090;16.212;2023-09-18T10:03:30;97242.31;;;22.90;69.68
15674;BME280;7937;48.090;16.212;2023-09-18T10:06:36;97390.44;;;23.92;68.39
15674;BME280;7937;48.090;16.212;2023-09-18T10:09:41;97220.16;;;22.79;66.91
15674;BME280;7937;48.090;16.212;2023-09-18T10:12:43;97223.69;;;23.01;62.62
15674;BME280;7937;48.090;16.212;2023-09-18T10:15:50;97263.44;;;23.38;63.16
15674;BME280;7937;48.090;16.212;2023-09-18T10:19:02;97374.28;;;24.32;62.59
15674;BME280;7937;48.090;16.212;2023-09-18T10:22:20;97298.72;;;23.80;63.34
15674;BME280;7937;48.090;16.212;2023-09-18T10:25:29;97377.28;;;24.39;63.20
15674;BME280;7937;48.090;16.212;2023-09-18T10:28:34;97265.97;;;24.01;58.78
15674;BME280;7937;48.090;16.212;2023-09-18T10:31:37;97324.16;;;24.58;58.12
15674;BME280;7937;48.090;16.212;2023-09-18T10:34:43;97133.41;;;23.16;58.70
15674;BME280;7937;48.090;16.212;2023-09-18T10:37:49;97313.84;;;24.51;59.69
15674;BME280;7937;48.090;16.212;2023-09-18T10:40:57;97322.78;;;24.76;61.41
15674;BME280;7937;48.090;16.212;2023-09-18T10:44:01;97183.75;;;24.08;55.80
15674;BME280;7937;48.090;16.212;2023-09-18T10:47:08;97280.97;;;24.44;58.78
15674;BME280;7937;48.090;16.212;2023-09-18T10:50:11;97242.41;;;24.05;58.18
15674;BME280;7937;48.090;16.212;2023-09-18T10:53:14;97206.50;;;23.54;61.91
15674;BME280;7937;48.090;16.212;2023-09-18T10:56:16;97172.84;;;23.47;59.07
15674;BME280;7937;48.090;16.212;2023-09-18T10:59:20;97273.00;;;23.90;60.87
15674;BME280;7937;48.090;16.212;2023-09-18T11:02:27;97139.19;;;23.27;58.75
15674;BME280;7937;48.090;16.212;2023-09-18T11:05:32;97218.00;;;23.72;59.01
15674;BME280;7937;48.090;16.212;2023-09-18T11:08:45;97209.63;;;23.77;58.96
15674;BME280;7937;48.090;16.212;2023-09-18T11:15:04;97181.00;;;23.59;59.97
15674;BME280;7937;48.090;16.212;2023-09-18T11:18:08;97252.13;;;24.31;56.10
15674;BME280;7937;48.090;16.212;2023-09-18T11:21:12;97313.34;;;24.86;58.26
15674;BME280;7937;48.090;16.212;2023-09-18T11:24:19;97197.69;;;24.18;57.90
15674;BME280;7937;48.090;16.212;2023-09-18T11:27:25;97201.00;;;24.24;57.81
15674;BME280;7937;48.090;16.212;2023-09-18T11:30:28;97231.84;;;24.40;56.35
15674;BME280;7937;48.090;16.212;2023-09-18T11:33:41;97217.31;;;24.49;57.23
15674;BME280;7937;48.090;16.212;2023-09-18T11:36:46;97106.25;;;23.89;57.71
15674;BME280;7937;48.090;16.212;2023-09-18T11:39:49;97197.03;;;24.74;53.49
15674;BME280;7937;48.090;16.212;2023-09-18T11:43:25;97246.50;;;25.16;51.85
15674;BME280;7937;48.090;16.212;2023-09-18T11:46:28;97229.66;;;24.99;55.07
15674;BME280;7937;48.090;16.212;2023-09-18T11:49:32;97199.59;;;25.23;51.50
15674;BME280;7937;48.090;16.212;2023-09-18T11:52:35;97132.69;;;24.69;52.70
15674;BME280;7937;48.090;16.212;2023-09-18T11:55:37;97285.69;;;25.68;52.06
15674;BME280;7937;48.090;16.212;2023-09-18T11:58:47;97128.81;;;24.42;52.37
15674;BME280;7937;48.090;16.212;2023-09-18T12:01:53;97124.38;;;24.50;52.82
15674;BME280;7937;48.090;16.212;2023-09-18T12:04:56;97117.13;;;24.42;54.84
15674;BME280;7937;48.090;16.212;2023-09-18T12:07:58;97272.91;;;25.56;53.70
15674;BME280;7937;48.090;16.212;2023-09-18T12:11:04;97126.91;;;24.71;51.63
15674;BME280;7937;48.090;16.212;2023-09-18T12:14:10;97255.16;;;25.62;52.32
15674;BME280;7937;48.090;16.212;2023-09-18T12:17:15;97124.28;;;24.75;51.11
15674;BME280;7937;48.090;16.212;2023-09-18T12:20:18;97212.19;;;25.43;51.18
15674;BME280;7937;48.090;16.212;2023-09-18T12:23:21;97245.06;;;25.79;51.81
15674;BME280;7937;48.090;16.212;2023-09-18T12:26:26;97133.88;;;25.12;50.69
15674;BME280;7937;48.090;16.212;2023-09-18T12:29:31;97142.31;;;25.23;50.12
15674;BME280;7937;48.090;16.212;2023-09-18T12:32:38;96937.06;;;23.59;52.40
15674;BME280;7937;48.090;16.212;2023-09-18T12:35:41;97240.00;;;25.65;51.48
15674;BME280;7937;48.090;16.212;2023-09-18T12:38:56;96901.22;;;23.41;53.85
15674;BME280;7937;48.090;16.212;2023-09-18T12:42:00;97060.91;;;24.22;54.22
15674;BME280;7937;48.090;16.212;2023-09-18T12:45:04;96837.81;;;22.97;54.46
15674;BME280;7937;48.090;16.212;2023-09-18T12:48:09;97056.94;;;24.59;52.07
15674;BME280;7937;48.090;16.212;2023-09-18T12:51:15;97056.91;;;24.43;52.18
15674;BME280;7937;48.090;16.212;2023-09-18T12:54:40;97116.91;;;24.75;53.54
15674;BME280;7937;48.090;16.212;2023-09-18T12:57:43;96900.56;;;23.32;54.31
15674;BME280;7937;48.090;16.212;2023-09-18T13:00:47;96958.28;;;23.54;55.91
15674;BME280;7937;48.090;16.212;2023-09-18T13:03:54;96908.66;;;23.16;56.08
15674;BME280;7937;48.090;16.212;2023-09-18T13:07:06;97236.78;;;25.31;55.87
15674;BME280;7937;48.090;16.212;2023-09-18T13:10:09;97255.31;;;25.54;54.10
15674;BME280;7937;48.090;16.212;2023-09-18T13:13:19;97093.09;;;24.44;55.00
15674;BME280;7937;48.090;16.212;2023-09-18T13:16:22;96870.97;;;22.78;57.43
15674;BME280;7937;48.090;16.212;2023-09-18T13:19:25;97025.13;;;23.67;57.31
15674;BME280;7937;48.090;16.212;2023-09-18T13:22:27;97208.53;;;24.95;57.94
15674;BME280;7937;48.090;16.212;2023-09-18T13:25:37;96877.53;;;22.65;59.22
15674;BME280;7937;48.090;16.212;2023-09-18T13:28:40;96866.56;;;22.61;59.33
15674;BME280;7937;48.090;16.212;2023-09-18T13:31:45;96959.94;;;23.18;58.03
15674;BME280;7937;48.090;16.212;2023-09-18T13:34:47;97193.03;;;24.84;58.99
15674;BME280;7937;48.090;16.212;2023-09-18T13:37:50;96958.56;;;23.12;59.63
15674;BME280;7937;48.090;16.212;2023-09-18T13:40:53;97021.81;;;23.61;58.42
15674;BME280;7937;48.090;16.212;2023-09-18T13:43:58;97133.31;;;24.10;58.72
15674;BME280;7937;48.090;16.212;2023-09-18T13:47:01;97012.22;;;23.39;59.83
15674;BME280;7937;48.090;16.212;2023-09-18T13:50:04;97189.50;;;24.55;60.38
15674;BME280;7937;48.090;16.212;2023-09-18T13:53:07;97099.91;;;23.85;61.35
15674;BME280;7937;48.090;16.212;2023-09-18T13:56:09;97052.75;;;23.44;60.10
15674;BME280;7937;48.090;16.212;2023-09-18T13:59:11;97117.69;;;23.95;61.17
15674;BME280;7937;48.090;16.212;2023-09-18T14:02:15;97120.25;;;24.16;60.24
15674;BME280;7937;48.090;16.212;2023-09-18T14:05:18;97120.66;;;23.90;60.16
15674;BME280;7937;48.090;16.212;2023-09-18T14:08:22;97005.78;;;23.20;59.89
15674;BME280;7937;48.090;16.212;2023-09-18T14:11:24;97178.06;;;24.25;60.32
15674;BME280;7937;48.090;16.212;2023-09-18T14:14:27;96924.78;;;22.27;61.43
15674;BME280;7937;48.090;16.212;2023-09-18T14:17:29;97114.53;;;23.68;61.56
15674;BME280;7937;48.090;16.212;2023-09-18T14:20:31;96952.84;;;22.44;62.63
15674;BME280;7937;48.090;16.212;2023-09-18T14:23:34;96983.19;;;22.58;63.04
15674;BME280;7937;48.090;16.212;2023-09-18T14:26:37;97106.22;;;23.53;62.58
15674;BME280;7937;48.090;16.212;2023-09-18T14:29:42;97076.88;;;23.09;63.45
15674;BME280;7937;48.090;16.212;2023-09-18T14:32:45;97052.75;;;23.08;62.19
15674;BME280;7937;48.090;16.212;2023-09-18T14:35:48;97002.09;;;22.66;63.05
15674;BME280;7937;48.090;16.212;2023-09-18T14:38:51;97050.06;;;23.08;62.58
15674;BME280;7937;48.090;16.212;2023-09-18T14:41:54;97101.34;;;23.34;63.03
15674;BME280;7937;48.090;16.212;2023-09-18T14:44:57;97146.03;;;23.82;62.65
15674;BME280;7937;48.090;16.212;2023-09-18T14:48:00;97039.19;;;23.08;63.86
15674;BME280;7937;48.090;16.212;2023-09-18T14:51:03;96943.81;;;22.52;64.79
15674;BME280;7937;48.090;16.212;2023-09-18T14:54:06;97027.72;;;22.90;63.77
15674;BME280;7937;48.090;16.212;2023-09-18T14:57:10;96976.63;;;22.59;64.31
15674;BME280;7937;48.090;16.212;2023-09-18T15:00:13;96993.25;;;22.70;64.82
15674;BME280;7937;48.090;16.212;2023-09-18T15:03:16;96998.78;;;22.61;64.40
15674;BME280;7937;48.090;16.212;2023-09-18T15:06:19;97022.59;;;22.76;65.24
15674;BME280;7937;48.090;16.212;2023-09-18T15:09:22;96962.56;;;22.45;64.46
15674;BME280;7937;48.090;16.212;2023-09-18T15:12:24;96974.34;;;22.36;64.02
15674;BME280;7937;48.090;16.212;2023-09-18T15:15:27;96985.69;;;22.75;64.26
15674;BME280;7937;48.090;16.212;2023-09-18T15:18:30;96943.34;;;22.37;64.37
15674;BME280;7937;48.090;16.212;2023-09-18T15:21:33;97022.63;;;22.88;65.10
15674;BME280;7937;48.090;16.212;2023-09-18T15:24:38;97044.19;;;22.85;66.19
15674;BME280;7937;48.090;16.212;2023-09-18T15:27:41;96985.41;;;22.44;66.14
15674;BME280;7937;48.090;16.212;2023-09-18T15:30:44;96978.63;;;22.37;66.53
15674;BME280;7937;48.090;16.212;2023-09-18T15:33:47;97100.31;;;23.02;67.08
15674;BME280;7937;48.090;16.212;2023-09-18T15:36:49;97022.06;;;22.50;67.81
15674;BME280;7937;48.090;16.212;2023-09-18T15:39:54;97115.13;;;23.04;69.17
15674;BME280;7937;48.090;16.212;2023-09-18T15:42:57;96959.03;;;21.99;69.52
15674;BME280;7937;48.090;16.212;2023-09-18T15:46:00;96866.00;;;21.32;69.85
15674;BME280;7937;48.090;16.212;2023-09-18T15:49:02;97104.66;;;22.82;70.40
15674;BME280;7937;48.090;16.212;2023-09-18T15:52:06;96980.34;;;21.88;71.08
15674;BME280;7937;48.090;16.212;2023-09-18T15:55:09;97069.44;;;22.40;71.91
15674;BME280;7937;48.090;16.212;2023-09-18T15:58:11;97104.09;;;22.55;72.13
15674;BME280;7937;48.090;16.212;2023-09-18T16:01:15;96968.06;;;21.49;72.27
15674;BME280;7937;48.090;16.212;2023-09-18T16:04:18;96792.03;;;20.39;72.09
15674;BME280;7937;48.090;16.212;2023-09-18T16:07:21;96736.38;;;20.00;71.98
15674;BME280;7937;48.090;16.212;2023-09-18T16:10:24;97058.53;;;22.07;72.44
15674;BME280;7937;48.090;16.212;2023-09-18T16:13:26;96739.56;;;20.02;73.84